Time,TemperatureF,DewpointF,PressureIn,WindDirection,WindDirectionDegrees,WindSpeedMPH,WindSpeedGustMPH,Humidity,HourlyPrecipIn,Conditions,Clouds,dailyrainin,SoftwareType,DateUTC
2013-01-05 00:09:00,70.3,69.4,30.18,North,0,1.1,1.1,96,0.00,,,-99.99,Homeseer,2013-01-05 05:09:00,
2013-01-05 00:19:00,70.2,69.3,30.18,NNE,22,2.7,3.1,96,0.00,,,-99.99,Homeseer,2013-01-05 05:19:00,
2013-01-05 00:29:00,70.0,69.1,30.18,North,0,2.0,4.7,96,0.00,,,-99.99,Homeseer,2013-01-05 05:29:00,
2013-01-05 00:39:00,69.8,68.9,30.18,ENE,67,1.6,1.6,96,0.00,,,-99.99,Homeseer,2013-01-05 05:39:00,
2013-01-05 00:49:00,69.6,68.9,30.18,North,0,1.3,2.7,97,0.00,,,-99.99,Homeseer,2013-01-05 05:49:00,
2013-01-05 00:59:00,69.6,68.9,30.18,ESE,112,0.0,1.6,97,0.00,,,-99.99,Homeseer,2013-01-05 05:59:00,
2013-01-05 01:09:00,69.6,68.9,30.18,North,0,1.3,2.5,97,0.00,,,-99.99,Homeseer,2013-01-05 06:09:00,
2013-01-05 01:19:00,69.6,68.9,30.15,North,0,0.0,0.0,97,0.00,,,-99.99,Homeseer,2013-01-05 06:19:00,
2013-01-05 01:29:00,69.4,68.7,30.15,North,0,0.9,1.1,97,0.00,,,-99.99,Homeseer,2013-01-05 06:29:00,
2013-01-05 01:39:00,69.3,68.6,30.15,North,0,1.3,0.0,97,0.00,,,-99.99,Homeseer,2013-01-05 06:39:00,
2013-01-05 01:49:00,69.1,68.4,30.15,NNE,22,1.3,2.0,97,0.00,,,-99.99,Homeseer,2013-01-05 06:49:00,
2013-01-05 01:59:00,68.9,68.2,30.15,NE,45,0.0,0.0,97,0.00,,,-99.99,Homeseer,2013-01-05 06:59:00,
2013-01-05 02:09:00,68.9,68.4,30.15,North,0,1.1,0.0,98,0.00,,,-99.99,Homeseer,2013-01-05 07:09:00,
2013-01-05 02:19:00,68.9,68.4,30.15,North,0,0.0,0.0,98,0.00,,,-99.99,Homeseer,2013-01-05 07:19:00,
2013-01-05 02:29:00,68.9,68.4,30.15,ENE,67,0.9,2.5,98,0.00,,,-99.99,Homeseer,2013-01-05 07:29:00,
2013-01-05 02:39:00,68.9,68.4,30.15,North,0,2.5,3.1,98,0.00,,,-99.99,Homeseer,2013-01-05 07:39:00,
2013-01-05 02:49:00,68.7,68.2,30.15,North,0,3.1,3.1,98,0.00,,,-99.99,Homeseer,2013-01-05 07:49:00,
2013-01-05 02:59:00,68.5,68.0,30.15,ENE,67,2.5,2.5,98,0.00,,,-99.99,Homeseer,2013-01-05 07:59:00,
2013-01-05 03:09:00,68.4,67.9,30.15,North,0,2.7,2.7,98,0.00,,,-99.99,Homeseer,2013-01-05 08:09:00,
2013-01-05 03:19:00,68.2,67.7,30.15,North,0,2.7,3.8,98,0.00,,,-99.99,Homeseer,2013-01-05 08:19:00,
2013-01-05 03:29:00,68.2,67.7,30.15,North,0,2.9,2.9,98,0.00,,,-99.99,Homeseer,2013-01-05 08:29:00,
2013-01-05 03:39:00,68.2,67.7,30.15,North,0,2.0,2.9,98,0.00,,,-99.99,Homeseer,2013-01-05 08:39:00,
2013-01-05 03:49:00,68.2,67.7,30.15,NNE,22,3.1,3.1,98,0.00,,,-99.99,Homeseer,2013-01-05 08:49:00,
2013-01-05 03:59:00,68.2,67.7,30.15,North,0,2.5,2.5,98,0.00,,,-99.99,Homeseer,2013-01-05 08:59:00,
2013-01-05 04:09:00,68.2,67.7,30.15,North,0,1.6,1.6,98,0.00,,,-99.99,Homeseer,2013-01-05 09:09:00,
2013-01-05 04:19:00,68.2,67.7,30.15,WNW,297,3.8,3.8,98,0.00,,,-99.99,Homeseer,2013-01-05 09:19:00,
2013-01-05 04:29:00,68.2,67.7,30.15,North,0,3.6,4.5,98,0.00,,,-99.99,Homeseer,2013-01-05 09:29:00,
2013-01-05 04:39:00,68.2,67.7,30.15,North,0,3.8,4.0,98,0.00,,,-99.99,Homeseer,2013-01-05 09:39:00,
2013-01-05 04:49:00,68.2,67.7,30.15,North,0,3.4,3.4,98,0.00,,,-99.99,Homeseer,2013-01-05 09:49:00,
2013-01-05 04:59:00,68.4,67.9,30.15,North,0,3.6,4.0,98,0.00,,,-99.99,Homeseer,2013-01-05 09:59:00,
2013-01-05 05:09:00,68.2,67.7,30.15,North,0,3.6,4.0,98,0.00,,,-99.99,Homeseer,2013-01-05 10:09:00,
2013-01-05 05:19:00,68.2,67.7,30.15,NNE,22,2.0,3.8,98,0.00,,,-99.99,Homeseer,2013-01-05 10:19:00,
2013-01-05 05:29:00,68.4,67.9,30.15,North,0,2.5,2.5,98,0.00,,,-99.99,Homeseer,2013-01-05 10:29:00,
2013-01-05 05:39:00,68.5,68.0,30.15,North,0,2.0,3.1,98,0.00,,,-99.99,Homeseer,2013-01-05 10:39:00,
2013-01-05 05:49:00,68.2,67.7,30.18,North,0,2.2,2.5,98,0.00,,,-99.99,Homeseer,2013-01-05 10:49:00,
2013-01-05 05:59:00,68.4,67.9,30.18,North,0,3.1,3.1,98,0.00,,,-99.99,Homeseer,2013-01-05 10:59:00,
2013-01-05 06:09:00,68.0,67.5,30.18,North,0,2.0,2.7,98,0.00,,,-99.99,Homeseer,2013-01-05 11:09:00,
2013-01-05 06:19:00,68.0,67.5,30.18,North,0,1.3,2.7,98,0.00,,,-99.99,Homeseer,2013-01-05 11:19:00,
2013-01-05 06:29:00,68.0,67.5,30.18,North,0,2.2,2.2,98,0.00,,,-99.99,Homeseer,2013-01-05 11:29:00,
2013-01-05 06:39:00,68.2,67.7,30.18,North,0,0.0,2.0,98,0.00,,,-99.99,Homeseer,2013-01-05 11:39:00,
2013-01-05 06:49:00,68.0,67.5,30.18,North,0,1.6,2.0,98,0.00,,,-99.99,Homeseer,2013-01-05 11:49:00,
2013-01-05 06:59:00,68.0,67.5,30.18,NNE,22,2.9,2.9,98,0.00,,,-99.99,Homeseer,2013-01-05 11:59:00,
2013-01-05 07:09:00,68.0,67.5,30.18,ENE,67,2.2,2.7,98,0.00,,,-99.99,Homeseer,2013-01-05 12:09:00,
2013-01-05 07:19:00,67.8,67.3,30.18,North,0,2.2,3.4,98,0.00,,,-99.99,Homeseer,2013-01-05 12:19:00,
2013-01-05 07:29:00,68.0,67.5,30.18,North,0,1.6,1.6,98,0.00,,,-99.99,Homeseer,2013-01-05 12:29:00,
2013-01-05 07:39:00,67.8,67.3,30.18,NNE,22,1.3,2.5,98,0.00,,,-99.99,Homeseer,2013-01-05 12:39:00,
2013-01-05 07:49:00,68.0,67.5,30.21,NNE,22,2.7,2.7,98,0.00,,,-99.99,Homeseer,2013-01-05 12:49:00,
2013-01-05 07:59:00,68.0,67.5,30.21,NNE,22,1.6,2.0,98,0.00,,,-99.99,Homeseer,2013-01-05 12:59:00,
2013-01-05 08:09:00,68.0,67.5,30.21,North,0,3.6,3.6,98,0.00,,,-99.99,Homeseer,2013-01-05 13:09:00,
2013-01-05 08:19:00,68.2,67.7,30.21,North,0,2.9,3.8,98,0.00,,,-99.99,Homeseer,2013-01-05 13:19:00,
2013-01-05 08:29:00,68.2,67.7,30.21,North,0,2.5,2.5,98,0.00,,,-99.99,Homeseer,2013-01-05 13:29:00,
2013-01-05 08:39:00,68.4,67.9,30.21,North,0,3.8,3.8,98,0.00,,,-99.99,Homeseer,2013-01-05 13:39:00,
2013-01-05 08:49:00,68.5,68.0,30.21,North,0,2.7,3.4,98,0.00,,,-99.99,Homeseer,2013-01-05 13:49:00,
2013-01-05 08:59:00,68.7,68.2,30.21,North,0,3.4,3.4,98,0.00,,,-99.99,Homeseer,2013-01-05 13:59:00,
2013-01-05 09:09:00,68.9,68.4,30.21,NW,315,3.4,3.4,98,0.00,,,-99.99,Homeseer,2013-01-05 14:09:00,
2013-01-05 09:19:00,68.9,68.4,30.21,North,0,2.9,2.9,98,0.00,,,-99.99,Homeseer,2013-01-05 14:19:00,
2013-01-05 09:29:00,69.1,68.6,30.21,NNE,22,2.9,3.1,98,0.00,,,-99.99,Homeseer,2013-01-05 14:29:00,
2013-01-05 09:39:00,69.1,68.6,30.21,NNE,22,2.7,3.6,98,0.00,,,-99.99,Homeseer,2013-01-05 14:39:00,
2013-01-05 09:49:00,69.1,68.6,30.21,NNE,22,3.1,3.1,98,0.00,,,-99.99,Homeseer,2013-01-05 14:49:00,
2013-01-05 09:59:00,69.3,68.8,30.21,North,0,3.6,4.3,98,0.03,,,-99.99,Homeseer,2013-01-05 14:59:00,
2013-01-05 10:09:00,69.4,68.9,30.21,North,0,4.9,6.5,98,0.03,,,-99.99,Homeseer,2013-01-05 15:09:00,
2013-01-05 10:19:00,70.2,69.7,30.21,North,0,4.3,4.7,98,0.03,,,-99.99,Homeseer,2013-01-05 15:19:00,
2013-01-05 10:29:00,70.5,70.0,30.21,North,0,4.5,4.5,98,0.03,,,-99.99,Homeseer,2013-01-05 15:29:00,
2013-01-05 10:39:00,71.2,70.7,30.21,North,0,2.9,4.0,98,0.03,,,-99.99,Homeseer,2013-01-05 15:39:00,
2013-01-05 10:49:00,71.4,70.9,30.21,ENE,67,3.8,3.8,98,0.03,,,-99.99,Homeseer,2013-01-05 15:49:00,
2013-01-05 10:59:00,72.0,71.3,30.21,North,0,3.1,3.4,97,0.03,,,-99.99,Homeseer,2013-01-05 15:59:00,
2013-01-05 11:09:00,72.0,71.1,30.21,North,0,2.2,2.7,96,0.03,,,-99.99,Homeseer,2013-01-05 16:09:00,
2013-01-05 11:19:00,72.1,71.2,30.21,East,90,2.9,4.7,96,0.03,,,-99.99,Homeseer,2013-01-05 16:19:00,
2013-01-05 11:29:00,72.5,71.3,30.21,NNE,22,1.6,4.0,95,0.03,,,-99.99,Homeseer,2013-01-05 16:29:00,
2013-01-05 11:39:00,72.5,71.1,30.21,NNE,22,3.1,3.1,94,0.03,,,-99.99,Homeseer,2013-01-05 16:39:00,
2013-01-05 11:49:00,72.9,71.5,30.21,ESE,112,1.1,3.8,94,0.03,,,-99.99,Homeseer,2013-01-05 16:49:00,
2013-01-05 11:59:00,72.9,71.5,30.21,East,90,2.0,2.0,94,0.03,,,-99.99,Homeseer,2013-01-05 16:59:00,
2013-01-05 12:09:00,72.7,71.3,30.21,NNE,22,3.4,4.7,94,0.00,,,-99.99,Homeseer,2013-01-05 17:09:00,
2013-01-05 12:19:00,73.0,71.6,30.18,ENE,67,2.0,2.5,94,0.00,,,-99.99,Homeseer,2013-01-05 17:19:00,
2013-01-05 12:29:00,73.0,71.6,30.18,North,0,3.4,3.4,94,0.00,,,-99.99,Homeseer,2013-01-05 17:29:00,
2013-01-05 12:39:00,73.8,72.1,30.18,East,90,3.6,3.6,93,0.00,,,-99.99,Homeseer,2013-01-05 17:39:00,
2013-01-05 12:49:00,73.9,71.4,30.18,ENE,67,2.9,3.1,90,0.00,,,-99.99,Homeseer,2013-01-05 17:49:00,
2013-01-05 12:59:00,73.9,72.0,30.15,ENE,67,1.6,2.9,92,0.00,,,-99.99,Homeseer,2013-01-05 17:59:00,
2013-01-05 13:09:00,73.6,71.4,30.15,East,90,2.0,3.4,91,0.00,,,-99.99,Homeseer,2013-01-05 18:09:00,
2013-01-05 13:19:00,73.9,71.4,30.15,ENE,67,3.6,4.0,90,0.00,,,-99.99,Homeseer,2013-01-05 18:19:00,
2013-01-05 13:29:00,74.3,71.6,30.15,ENE,67,4.3,4.3,89,0.00,,,-99.99,Homeseer,2013-01-05 18:29:00,
2013-01-05 13:39:00,75.4,72.1,30.15,East,90,1.6,0.0,87,0.00,,,-99.99,Homeseer,2013-01-05 18:39:00,
2013-01-05 13:49:00,75.4,71.3,30.15,East,90,2.9,5.6,84,0.00,,,-99.99,Homeseer,2013-01-05 18:49:00,
2013-01-05 13:59:00,75.0,70.9,30.15,ESE,112,3.4,3.6,84,0.00,,,-99.99,Homeseer,2013-01-05 18:59:00,
2013-01-05 14:09:00,74.7,71.2,30.15,North,0,2.5,2.5,86,0.00,,,-99.99,Homeseer,2013-01-05 19:09:00,
2013-01-05 14:19:00,74.3,70.5,30.12,NNE,22,2.0,6.0,85,0.00,,,-99.99,Homeseer,2013-01-05 19:19:00,
2013-01-05 14:29:00,74.7,70.6,30.12,North,0,3.4,3.4,84,0.00,,,-99.99,Homeseer,2013-01-05 19:29:00,
2013-01-05 14:39:00,74.8,69.9,30.12,ENE,67,2.5,2.5,81,0.00,,,-99.99,Homeseer,2013-01-05 19:39:00,
2013-01-05 14:49:00,74.8,69.3,30.12,East,90,2.7,2.7,79,0.00,,,-99.99,Homeseer,2013-01-05 19:49:00,
2013-01-05 14:59:00,75.0,70.1,30.12,ESE,112,2.5,2.5,81,0.00,,,-99.99,Homeseer,2013-01-05 19:59:00,
2013-01-05 15:09:00,75.0,69.5,30.12,North,0,1.3,1.3,79,0.00,,,-99.99,Homeseer,2013-01-05 20:09:00,
2013-01-05 15:19:00,75.4,69.3,30.12,East,90,1.6,0.0,77,0.00,,,-99.99,Homeseer,2013-01-05 20:19:00,
2013-01-05 15:29:00,75.6,69.2,30.15,ENE,67,2.0,3.8,76,0.00,,,-99.99,Homeseer,2013-01-05 20:29:00,
2013-01-05 15:39:00,75.2,69.1,30.15,ENE,67,0.9,0.0,77,0.00,,,-99.99,Homeseer,2013-01-05 20:39:00,
2013-01-05 15:49:00,75.2,68.8,30.15,ESE,112,1.1,2.5,76,0.00,,,-99.99,Homeseer,2013-01-05 20:49:00,
2013-01-05 15:59:00,75.4,68.4,30.15,North,0,2.9,2.9,74,0.00,,,-99.99,Homeseer,2013-01-05 20:59:00,
2013-01-05 16:09:00,75.2,68.5,30.15,East,90,3.1,0.0,75,0.00,,,-99.99,Homeseer,2013-01-05 21:09:00,
2013-01-05 16:19:00,75.0,68.6,30.15,ESE,112,3.1,4.3,76,0.00,,,-99.99,Homeseer,2013-01-05 21:19:00,
2013-01-05 16:29:00,75.2,68.5,30.12,ESE,112,2.5,3.8,75,0.00,,,-99.99,Homeseer,2013-01-05 21:29:00,
2013-01-05 16:39:00,74.8,67.9,30.12,ESE,112,3.6,3.6,74,0.00,,,-99.99,Homeseer,2013-01-05 21:39:00,
2013-01-05 16:49:00,74.8,68.2,30.12,ESE,112,2.0,2.2,75,0.00,,,-99.99,Homeseer,2013-01-05 21:49:00,
2013-01-05 16:59:00,74.7,68.7,30.12,SE,135,1.3,2.9,77,0.00,,,-99.99,Homeseer,2013-01-05 21:59:00,
2013-01-05 17:09:00,74.3,68.9,30.12,East,90,1.3,0.0,79,0.00,,,-99.99,Homeseer,2013-01-05 22:09:00,
2013-01-05 17:19:00,74.1,68.9,30.12,ESE,112,1.3,2.0,80,0.00,,,-99.99,Homeseer,2013-01-05 22:19:00,
2013-01-05 17:29:00,73.9,68.7,30.15,SE,135,1.1,2.5,80,0.00,,,-99.99,Homeseer,2013-01-05 22:29:00,
2013-01-05 17:39:00,73.8,69.2,30.15,SE,135,0.0,0.0,82,0.00,,,-99.99,Homeseer,2013-01-05 22:39:00,
2013-01-05 17:49:00,73.6,69.3,30.15,NE,45,0.9,0.9,83,0.00,,,-99.99,Homeseer,2013-01-05 22:49:00,
2013-01-05 17:59:00,73.4,69.4,30.15,East,90,0.0,0.0,84,0.00,,,-99.99,Homeseer,2013-01-05 22:59:00,
2013-01-05 18:09:00,73.2,69.4,30.15,ESE,112,0.9,1.6,85,0.00,,,-99.99,Homeseer,2013-01-05 23:09:00,
2013-01-05 18:19:00,73.4,69.9,30.15,ENE,67,0.0,0.0,86,0.00,,,-99.99,Homeseer,2013-01-05 23:19:00,
2013-01-05 18:29:00,73.2,70.0,30.15,ESE,112,0.0,0.0,87,0.00,,,-99.99,Homeseer,2013-01-05 23:29:00,
2013-01-05 18:39:00,73.0,69.8,30.15,ESE,112,0.0,0.9,87,0.00,,,-99.99,Homeseer,2013-01-05 23:39:00,
2013-01-05 18:49:00,73.0,70.0,30.15,East,90,0.0,0.0,88,0.00,,,-99.99,Homeseer,2013-01-05 23:49:00,
2013-01-05 18:59:00,73.0,70.0,30.15,East,90,0.0,0.9,88,0.00,,,-99.99,Homeseer,2013-01-05 23:59:00,
2013-01-05 19:09:00,73.0,70.3,30.15,NNE,22,0.0,0.0,89,0.00,,,-99.99,Homeseer,2013-01-06 00:09:00,
2013-01-05 19:19:00,72.7,70.3,30.15,North,0,0.0,0.0,90,0.00,,,-99.99,Homeseer,2013-01-06 00:19:00,
2013-01-05 19:29:00,72.3,69.9,30.15,North,0,0.0,0.0,90,0.00,,,-99.99,Homeseer,2013-01-06 00:29:00,
2013-01-05 19:39:00,72.1,69.9,30.15,North,0,0.0,0.0,91,0.00,,,-99.99,Homeseer,2013-01-06 00:39:00,
2013-01-05 19:49:00,72.0,70.1,30.15,North,0,0.0,0.0,92,0.00,,,-99.99,Homeseer,2013-01-06 00:49:00,
2013-01-05 19:59:00,72.0,70.1,30.18,North,0,0.0,1.3,92,0.00,,,-99.99,Homeseer,2013-01-06 00:59:00,
2013-01-05 20:09:00,71.8,69.9,30.18,North,0,0.0,0.0,92,0.00,,,-99.99,Homeseer,2013-01-06 01:09:00,
2013-01-05 20:19:00,71.6,69.9,30.18,NW,315,0.0,0.0,93,0.00,,,-99.99,Homeseer,2013-01-06 01:19:00,
2013-01-05 20:29:00,71.4,70.0,30.18,North,0,0.0,0.0,94,0.00,,,-99.99,Homeseer,2013-01-06 01:29:00,
2013-01-05 20:39:00,71.2,69.8,30.18,North,0,0.0,0.0,94,0.00,,,-99.99,Homeseer,2013-01-06 01:39:00,
2013-01-05 20:49:00,71.2,69.5,30.18,North,0,0.0,0.0,93,0.00,,,-99.99,Homeseer,2013-01-06 01:49:00,
2013-01-05 20:59:00,71.1,69.4,30.18,North,0,0.0,0.0,93,0.00,,,-99.99,Homeseer,2013-01-06 01:59:00,
2013-01-05 21:09:00,70.9,69.2,30.18,North,0,0.0,0.0,93,0.00,,,-99.99,Homeseer,2013-01-06 02:09:00,
2013-01-05 21:19:00,70.9,69.7,30.18,North,0,0.0,0.0,95,0.00,,,-99.99,Homeseer,2013-01-06 02:19:00,
2013-01-05 21:29:00,70.5,69.1,30.18,North,0,0.0,0.0,94,0.00,,,-99.99,Homeseer,2013-01-06 02:29:00,
2013-01-05 21:39:00,70.5,69.1,30.18,North,0,0.0,0.0,94,0.00,,,-99.99,Homeseer,2013-01-06 02:39:00,
2013-01-05 21:49:00,70.3,69.1,30.18,North,0,0.0,0.0,95,0.00,,,-99.99,Homeseer,2013-01-06 02:49:00,
2013-01-05 21:59:00,70.3,69.1,30.18,North,0,0.0,0.0,95,0.00,,,-99.99,Homeseer,2013-01-06 02:59:00,
2013-01-05 22:09:00,70.3,69.1,30.18,North,0,0.0,0.0,95,0.00,,,-99.99,Homeseer,2013-01-06 03:09:00,
2013-01-05 22:19:00,70.3,69.1,30.18,North,0,0.0,0.0,95,0.00,,,-99.99,Homeseer,2013-01-06 03:19:00,
2013-01-05 22:29:00,70.2,69.0,30.18,North,0,0.0,0.0,95,0.00,,,-99.99,Homeseer,2013-01-06 03:29:00,
2013-01-05 22:39:00,70.2,69.0,30.18,North,0,0.0,0.0,95,0.00,,,-99.99,Homeseer,2013-01-06 03:39:00,
2013-01-05 22:49:00,70.0,69.1,30.18,North,0,0.0,0.0,96,0.00,,,-99.99,Homeseer,2013-01-06 03:49:00,
2013-01-05 22:59:00,70.0,69.1,30.18,North,0,0.0,0.0,96,0.00,,,-99.99,Homeseer,2013-01-06 03:59:00,
2013-01-05 23:09:00,69.8,68.6,30.18,North,0,0.0,0.0,95,0.00,,,-99.99,Homeseer,2013-01-06 04:09:00,
2013-01-05 23:19:00,69.8,68.6,30.18,North,0,0.0,0.0,95,0.00,,,-99.99,Homeseer,2013-01-06 04:19:00,
2013-01-05 23:29:00,69.4,68.5,30.18,West,270,0.0,0.0,96,0.00,,,-99.99,Homeseer,2013-01-06 04:29:00,
2013-01-05 23:39:00,69.3,68.4,30.18,North,0,0.0,0.0,96,0.00,,,-99.99,Homeseer,2013-01-06 04:39:00,
2013-01-05 23:49:00,69.3,68.4,30.15,North,0,0.0,0.0,96,0.00,,,-99.99,Homeseer,2013-01-06 04:49:00,
2013-01-05 23:59:00,69.1,68.2,30.15,NW,315,0.0,0.0,96,0.00,,,-99.99,Homeseer,2013-01-06 04:59:00,